Time;durP1;ratioP1;P1;durP2;ratioP2;P2;SDS_P1;SDS_P2;PMS_P1;PMS_P2;Temp;Humidity;BMP_temperature;BMP_pressure;BME280_temperature;BME280_humidity;BME280_pressure;Samples;Min_cycle;Max_cycle;Signal;HPM_P1;HPM_P2
2023/10/09 00:03:51;;;;;;;9.47;5.50;;;;;;;17.45;59.12;99377.16;7056765;28;20664;-82
2023/10/09 00:07:16;;;;;;;12.23;5.83;;;;;;;17.52;58.84;99384.16;7049891;27;20198;-81
2023/10/09 00:10:49;;;;;;;11.63;5.70;;;;;;;17.58;58.61;99369.56;7058557;28;20257;-81
2023/10/09 00:14:10;;;;;;;10.20;6.17;;;;;;;17.37;58.83;99364.66;7029725;28;20306;-81
2023/10/09 00:17:32;;;;;;;14.10;5.63;;;;;;;17.52;58.96;99362.31;7031224;28;20214;-82
2023/10/09 00:20:55;;;;;;;11.50;5.80;;;;;;;16.85;58.21;99233.91;7037987;28;20286;-81
2023/10/09 00:24:23;;;;;;;9.23;5.30;;;;;;;17.45;58.53;99344.44;7034625;28;20226;-82
2023/10/09 00:27:46;;;;;;;10.37;5.10;;;;;;;17.32;58.43;99361.81;7042859;28;20264;-81
2023/10/09 00:31:14;;;;;;;10.77;5.53;;;;;;;16.92;58.71;99305.47;7031501;28;20195;-82
2023/10/09 00:34:39;;;;;;;11.73;6.47;;;;;;;17.20;59.23;99349.22;7036412;28;20575;-81
2023/10/09 00:38:07;;;;;;;10.33;5.70;;;;;;;17.16;59.27;99357.03;7049974;28;20668;-83
2023/10/09 00:41:29;;;;;;;17.60;5.67;;;;;;;17.23;58.68;99343.31;7043444;28;20206;-82
2023/10/09 00:44:52;;;;;;;10.50;5.70;;;;;;;17.24;59.38;99337.63;7058999;28;20232;-81
2023/10/09 00:48:22;;;;;;;10.33;5.60;;;;;;;17.24;58.36;99312.25;7058408;28;20258;-81
2023/10/09 00:51:56;;;;;;;12.03;5.20;;;;;;;17.18;58.36;99314.03;7043204;28;20348;-82
2023/10/09 00:55:21;;;;;;;13.27;5.93;;;;;;;17.17;58.71;99327.91;7048978;28;20262;-80
2023/10/09 00:58:43;;;;;;;13.30;5.67;;;;;;;17.26;58.63;99327.31;7057943;28;20737;-81
2023/10/09 01:02:06;;;;;;;10.47;5.10;;;;;;;17.12;58.84;99327.75;7048284;28;20214;-81
2023/10/09 01:05:28;;;;;;;13.13;5.37;;;;;;;17.26;58.44;99334.66;7030014;28;20226;-80
2023/10/09 01:09:06;;;;;;;13.93;5.87;;;;;;;17.13;57.78;99316.66;7029231;28;20225;-81
2023/10/09 01:12:28;;;;;;;15.63;5.40;;;;;;;17.39;57.80;99331.75;7028998;28;20195;-81
2023/10/09 01:15:51;;;;;;;19.00;6.30;;;;;;;16.99;58.68;99325.25;7055904;28;20627;-81
2023/10/09 01:19:23;;;;;;;13.67;5.87;;;;;;;17.35;58.46;99323.16;7049545;28;20203;-81
2023/10/09 01:22:46;;;;;;;12.40;5.07;;;;;;;17.44;57.60;99324.53;7027586;28;20285;-80
2023/10/09 01:26:08;;;;;;;11.27;5.70;;;;;;;17.18;59.01;99318.66;7029391;28;20223;-80
2023/10/09 01:29:30;;;;;;;13.90;5.97;;;;;;;17.15;59.02;99311.78;7028606;28;20364;-81
2023/10/09 01:32:52;;;;;;;10.23;6.00;;;;;;;17.30;58.45;99300.41;7028483;28;20673;-81
2023/10/09 01:36:15;;;;;;;10.37;5.57;;;;;;;17.55;57.57;99284.69;7028622;28;20312;-81
2023/10/09 01:39:41;;;;;;;12.10;5.50;;;;;;;17.63;57.56;99308.88;7028329;28;20293;-80
2023/10/09 01:43:04;;;;;;;9.37;5.17;;;;;;;17.58;57.73;99308.75;7028265;28;20268;-81
2023/10/09 01:46:26;;;;;;;17.00;6.70;;;;;;;17.36;57.81;99304.94;7027380;28;20227;-81
2023/10/09 01:49:49;;;;;;;16.60;6.33;;;;;;;17.18;58.20;99272.34;7028382;28;20315;-80
2023/10/09 01:53:17;;;;;;;11.73;5.23;;;;;;;17.39;58.05;99304.50;7027981;28;20201;-81
2023/10/09 01:56:40;;;;;;;15.13;5.70;;;;;;;17.41;58.07;99297.75;7028227;28;20252;-81
2023/10/09 02:00:05;;;;;;;14.07;6.03;;;;;;;17.25;58.45;99287.50;7028492;28;20303;-80
2023/10/09 02:03:29;;;;;;;14.83;5.83;;;;;;;17.64;57.36;99291.44;7027465;28;20618;-81
2023/10/09 02:06:52;;;;;;;17.43;5.57;;;;;;;17.91;56.50;99292.59;7028186;28;20246;-80
2023/10/09 02:10:25;;;;;;;16.90;6.27;;;;;;;16.94;58.85;99262.47;7027610;28;20277;-81
2023/10/09 02:13:53;;;;;;;13.93;5.80;;;;;;;17.71;57.57;99276.63;7026133;28;20189;-81
2023/10/09 02:17:18;;;;;;;12.80;5.30;;;;;;;17.66;57.42;99279.22;7028188;28;20192;-81
2023/10/09 02:20:40;;;;;;;11.87;5.73;;;;;;;17.65;57.56;99277.59;7028815;28;20253;-81
2023/10/09 02:24:07;;;;;;;13.63;5.83;;;;;;;17.59;57.90;99283.16;7026299;28;20306;-80
2023/10/09 02:27:53;;;;;;;17.00;6.70;;;;;;;17.62;57.52;99274.47;7027547;28;20191;-81
2023/10/09 02:31:16;;;;;;;17.67;6.23;;;;;;;17.74;57.56;99280.78;7027712;28;20210;-81
2023/10/09 02:34:39;;;;;;;10.70;5.47;;;;;;;17.58;57.46;99243.31;7027296;28;20230;-80
2023/10/09 02:38:00;;;;;;;23.00;6.13;;;;;;;17.69;57.38;99273.28;7027787;28;20260;-80
2023/10/09 02:41:28;;;;;;;14.10;6.10;;;;;;;17.75;57.25;99280.50;7028038;28;20254;-81
2023/10/09 02:44:51;;;;;;;18.30;6.47;;;;;;;17.79;57.27;99264.50;7027848;28;20592;-82
2023/10/09 02:48:13;;;;;;;12.73;5.17;;;;;;;17.99;56.79;99275.84;7027836;28;20267;-81
2023/10/09 02:51:41;;;;;;;16.70;6.07;;;;;;;17.96;56.94;99271.72;7026893;28;20203;-82
2023/10/09 02:55:08;;;;;;;15.87;5.90;;;;;;;17.81;57.27;99271.38;7027176;28;20222;-81
2023/10/09 02:58:32;;;;;;;12.27;5.47;;;;;;;17.84;57.05;99250.97;7027788;28;20190;-82
2023/10/09 03:01:53;;;;;;;15.03;5.67;;;;;;;18.00;56.47;99267.44;7026968;28;20203;-81
2023/10/09 03:05:15;;;;;;;17.10;6.43;;;;;;;17.93;57.11;99261.25;7027356;28;20262;-81
2023/10/09 03:08:38;;;;;;;13.03;5.37;;;;;;;17.51;57.65;99254.34;7027796;28;20756;-81
2023/10/09 03:12:03;;;;;;;10.53;5.27;;;;;;;17.40;59.13;99247.00;7026381;28;20333;-81
2023/10/09 03:15:24;;;;;;;16.73;5.83;;;;;;;17.30;58.84;99243.19;7027189;28;20314;-81
2023/10/09 03:18:47;;;;;;;12.17;5.60;;;;;;;17.24;59.51;99231.34;7026950;28;20254;-82
2023/10/09 03:22:09;;;;;;;11.57;5.80;;;;;;;17.76;58.43;99248.63;7027444;28;20661;-81
2023/10/09 03:25:32;;;;;;;18.50;6.07;;;;;;;17.81;58.08;99254.19;7033022;28;20217;-81
2023/10/09 03:28:54;;;;;;;8.70;5.23;;;;;;;17.80;57.99;99249.81;7033011;28;20290;-81
2023/10/09 03:32:15;;;;;;;15.00;6.90;;;;;;;17.97;57.69;99237.06;7031540;28;20219;-81
2023/10/09 03:35:39;;;;;;;12.03;5.93;;;;;;;17.90;57.75;99241.81;7032746;28;20258;-81
2023/10/09 03:39:07;;;;;;;16.13;6.70;;;;;;;17.92;57.52;99229.59;7033041;28;20197;-81
2023/10/09 03:42:30;;;;;;;17.23;5.70;;;;;;;17.92;57.50;99240.50;7033637;28;20216;-81
2023/10/09 03:45:53;;;;;;;10.40;6.13;;;;;;;17.87;57.94;99236.84;7032769;28;20302;-81
2023/10/09 03:49:22;;;;;;;14.70;6.20;;;;;;;17.97;57.61;99239.78;7031066;28;20221;-81
2023/10/09 03:52:44;;;;;;;15.03;5.90;;;;;;;17.87;57.50;99215.84;7032023;28;20197;-81
2023/10/09 03:56:11;;;;;;;14.30;7.17;;;;;;;17.68;58.31;99221.72;7033135;28;20295;-81
2023/10/09 03:59:34;;;;;;;19.50;6.57;;;;;;;17.59;58.63;99234.06;7032229;28;20208;-81
2023/10/09 04:02:56;;;;;;;12.03;6.37;;;;;;;17.67;58.73;99244.59;7032044;28;20544;-81
2023/10/09 04:06:18;;;;;;;12.70;5.87;;;;;;;17.54;58.35;99220.31;7041682;28;20637;-81
2023/10/09 04:09:44;;;;;;;14.07;5.93;;;;;;;17.65;58.64;99209.41;7041738;28;20230;-80
2023/10/09 04:13:11;;;;;;;11.40;5.80;;;;;;;17.73;58.71;99235.44;7040231;28;20210;-81
2023/10/09 04:16:51;;;;;;;12.33;7.07;;;;;;;17.52;58.43;99178.84;7047812;28;20709;-80
2023/10/09 04:20:47;;;;;;;11.30;5.80;;;;;;;17.71;58.58;99235.72;7056004;28;20250;-81
2023/10/09 04:24:09;;;;;;;12.40;6.03;;;;;;;17.70;58.86;99230.50;7058092;28;20676;-81
2023/10/09 04:27:36;;;;;;;18.70;7.00;;;;;;;17.60;58.87;99243.91;7051972;28;20199;-79
2023/10/09 04:31:02;;;;;;;15.23;7.03;;;;;;;17.84;58.31;99223.69;7039008;28;20241;-78
2023/10/09 04:34:34;;;;;;;14.20;6.30;;;;;;;17.92;57.67;99243.25;7031293;28;20314;-80
2023/10/09 04:38:04;;;;;;;13.50;6.10;;;;;;;17.73;57.96;99247.19;7031106;28;20198;-80
2023/10/09 04:41:32;;;;;;;14.03;7.13;;;;;;;17.60;58.80;99236.56;7053047;28;20226;-80
2023/10/09 04:48:38;;;;;;;11.53;6.83;;;;;;;17.42;59.20;99238.59;7056663;28;20207;-80
2023/10/09 04:52:08;;;;;;;15.67;7.07;;;;;;;17.53;59.11;99235.03;7056185;28;20183;-81
2023/10/09 04:55:38;;;;;;;12.20;6.43;;;;;;;17.43;59.31;99240.25;7052632;28;20278;-80
2023/10/09 04:59:08;;;;;;;16.83;6.57;;;;;;;17.53;59.11;99240.47;7053886;28;20205;-80
2023/10/09 05:02:36;;;;;;;12.70;6.57;;;;;;;17.46;59.28;99248.75;7044162;28;20193;-80
2023/10/09 05:06:20;;;;;;;17.77;7.90;;;;;;;17.58;58.99;99243.31;7037547;28;20221;-80
2023/10/09 05:09:55;;;;;;;11.47;7.00;;;;;;;17.61;58.40;99237.38;7056281;28;20625;-79
2023/10/09 05:13:27;;;;;;;14.33;7.17;;;;;;;16.84;58.85;99112.41;7055449;28;20285;-80
2023/10/09 05:16:54;;;;;;;13.30;6.53;;;;;;;17.59;58.76;99243.09;7056117;28;20700;-80
2023/10/09 05:27:50;;;;;;;14.67;7.53;;;;;;;17.36;59.57;99247.69;7039339;28;20206;-80
2023/10/09 05:31:44;;;;;;;14.63;7.10;;;;;;;17.12;59.89;99246.88;7026806;28;20206;-80
2023/10/09 05:35:15;;;;;;;14.97;7.30;;;;;;;17.39;59.72;99247.25;7035089;28;20224;-82
2023/10/09 05:38:46;;;;;;;15.80;8.20;;;;;;;17.14;60.03;99231.09;7044361;28;20560;-80
2023/10/09 05:42:09;;;;;;;15.17;8.33;;;;;;;17.68;58.92;99249.81;7037934;28;20217;-81
2023/10/09 05:49:19;;;;;;;18.57;9.83;;;;;;;17.72;58.00;99253.72;7041210;28;20219;-80
2023/10/09 05:53:04;;;;;;;16.53;7.70;;;;;;;17.60;58.71;99258.38;7035822;28;20207;-80
2023/10/09 06:03:54;;;;;;;16.63;9.13;;;;;;;17.45;59.51;99251.75;7031587;28;20210;-80
2023/10/09 06:07:23;;;;;;;14.00;8.83;;;;;;;17.73;59.01;99251.81;7034342;28;20198;-84
2023/10/09 06:10:43;;;;;;;15.37;8.47;;;;;;;17.48;58.85;99243.09;7048439;28;20691;-83
2023/10/09 06:14:12;;;;;;;18.13;8.47;;;;;;;17.55;59.05;99254.69;7038232;28;20883;-81
2023/10/09 06:17:43;;;;;;;17.90;8.37;;;;;;;17.70;58.73;99261.31;7045019;28;20201;-84
2023/10/09 06:24:54;;;;;;;15.90;8.43;;;;;;;18.01;58.48;99274.53;7049323;28;20230;-82
2023/10/09 06:28:18;;;;;;;13.77;8.10;;;;;;;17.97;58.47;99281.53;7056921;27;20652;-81
2023/10/09 06:31:58;;;;;;;15.83;8.93;;;;;;;17.96;57.79;99240.84;7050250;27;20330;-80
2023/10/09 06:35:21;;;;;;;16.77;8.43;;;;;;;18.21;57.68;99279.59;7049727;28;20347;-85
2023/10/09 06:39:50;;;;;;;13.83;7.33;;;;;;;18.35;56.99;99275.53;7046712;28;20604;-79
2023/10/09 06:42:34;;;;;;;15.63;7.53;;;;;;;18.42;56.43;99278.94;7045762;28;20213;-82
2023/10/09 06:46:17;;;;;;;15.73;7.03;;;;;;;18.40;57.39;99284.63;7038945;28;20227;-81
2023/10/09 06:49:38;;;;;;;16.37;7.70;;;;;;;18.31;57.84;99277.06;7037298;28;20220;-80
2023/10/09 07:04:18;;;;;;;20.77;7.07;;;;;;;17.85;58.73;99279.91;7044341;28;20224;-81
2023/10/09 07:07:50;;;;;;;15.00;7.30;;;;;;;17.97;58.25;99242.50;7047074;28;20199;-81
2023/10/09 07:11:57;;;;;;;11.97;6.60;;;;;;;18.51;57.72;99270.13;7044325;28;20207;-81
2023/10/09 07:19:09;;;;;;;13.90;6.27;;;;;;;18.96;57.01;99286.50;7041453;28;20203;-80
2023/10/09 07:22:39;;;;;;;12.83;6.23;;;;;;;19.03;56.63;99285.25;7041039;28;20208;-79
2023/10/09 07:26:18;;;;;;;11.20;6.50;;;;;;;19.34;55.58;99284.72;7034686;28;20231;-80
2023/10/09 07:29:47;;;;;;;11.70;5.93;;;;;;;19.52;54.64;99281.72;7033164;28;20216;-82
2023/10/09 07:33:17;;;;;;;12.03;5.47;;;;;;;19.65;54.38;99280.53;7040165;28;20201;-81
2023/10/09 07:36:41;;;;;;;13.87;5.97;;;;;;;19.82;54.29;99278.59;7043192;28;20720;-79
2023/10/09 07:40:07;;;;;;;13.63;6.20;;;;;;;19.96;54.13;99286.19;7051534;28;20208;-81
2023/10/09 07:43:35;;;;;;;11.67;6.50;;;;;;;19.80;54.73;99258.88;7037197;28;20200;-81
2023/10/09 07:50:48;;;;;;;12.70;6.37;;;;;;;20.37;53.10;99282.91;7043142;28;20311;-80
2023/10/09 07:54:14;;;;;;;18.00;7.23;;;;;;;20.15;53.88;99290.28;7046682;28;20702;-79
2023/10/09 07:57:42;;;;;;;12.93;6.60;;;;;;;20.21;53.12;99286.53;7038582;28;20202;-79
2023/10/09 08:01:15;;;;;;;15.03;6.43;;;;;;;20.13;52.68;99229.50;7048856;28;20195;-78
2023/10/09 08:04:39;;;;;;;11.43;6.00;;;;;;;20.88;52.19;99290.59;7051006;28;20220;-80
2023/10/09 08:08:39;;;;;;;14.30;6.97;;;;;;;20.98;52.23;99298.91;7046985;28;20205;-79
2023/10/09 08:12:13;;;;;;;15.27;7.27;;;;;;;21.27;51.61;99292.06;7051964;28;20216;-80
2023/10/09 08:15:51;;;;;;;12.13;6.97;;;;;;;21.08;51.90;99299.03;7055032;27;20225;-79
2023/10/09 08:19:32;;;;;;;15.13;5.87;;;;;;;21.30;51.66;99292.34;7052142;28;20197;-79
2023/10/09 08:22:56;;;;;;;14.40;5.77;;;;;;;21.28;51.55;99272.59;7044743;28;20233;-81
2023/10/09 08:26:29;;;;;;;13.27;5.90;;;;;;;21.31;51.66;99295.94;7054724;27;20220;-79
2023/10/09 08:30:11;;;;;;;16.90;6.50;;;;;;;21.42;52.50;99303.16;7044838;28;20217;-81
2023/10/09 08:33:44;;;;;;;12.60;5.37;;;;;;;21.71;51.41;99277.06;7035530;28;20215;-81
2023/10/09 08:37:05;;;;;;;16.13;6.27;;;;;;;22.17;51.43;99299.00;7056416;28;20196;-80
2023/10/09 08:40:32;;;;;;;11.27;5.90;;;;;;;22.18;50.96;99294.34;7039621;28;20930;-83
2023/10/09 08:43:56;;;;;;;13.37;5.23;;;;;;;22.28;49.98;99297.94;7040453;28;20221;-81
2023/10/09 08:47:18;;;;;;;9.77;5.43;;;;;;;22.54;50.43;99288.72;7038847;28;20208;-80
2023/10/09 08:50:40;;;;;;;13.20;5.67;;;;;;;22.70;50.16;99292.31;7056271;28;20232;-80
2023/10/09 08:54:02;;;;;;;11.47;6.70;;;;;;;22.70;49.68;99295.91;7053084;28;20224;-80
2023/10/09 08:57:23;;;;;;;15.30;6.33;;;;;;;22.95;49.45;99292.41;7051292;27;20260;-81
2023/10/09 09:01:12;;;;;;;15.17;6.03;;;;;;;22.19;48.87;99189.66;7058249;28;20265;-82
2023/10/09 09:04:41;;;;;;;16.33;7.67;;;;;;;23.00;49.13;99301.47;7063154;28;20226;-83
2023/10/09 09:08:03;;;;;;;12.10;6.47;;;;;;;23.29;48.51;99299.03;7039166;28;20209;-83
2023/10/09 09:11:29;;;;;;;16.27;9.57;;;;;;;23.07;49.39;99293.75;7041455;28;20629;-83
2023/10/09 09:14:52;;;;;;;16.57;8.87;;;;;;;23.51;48.39;99300.41;7043624;28;20237;-84
2023/10/09 09:18:17;;;;;;;14.23;7.57;;;;;;;23.62;48.30;99293.81;7029936;28;20210;-84
2023/10/09 09:21:40;;;;;;;16.40;8.30;;;;;;;23.72;48.36;99318.56;7038556;28;20279;-83
2023/10/09 09:25:03;;;;;;;17.53;6.63;;;;;;;24.01;48.11;99318.81;7036324;28;20316;-84
2023/10/09 09:28:26;;;;;;;13.23;6.70;;;;;;;24.09;48.18;99315.50;7048160;28;20216;-83
2023/10/09 09:31:57;;;;;;;15.63;6.30;;;;;;;24.33;46.63;99317.34;7061353;28;20277;-83
2023/10/09 09:35:20;;;;;;;14.10;7.60;;;;;;;24.75;45.80;99327.94;7060702;28;20224;-83
2023/10/09 09:38:47;;;;;;;16.20;6.63;;;;;;;24.63;46.19;99317.25;7066682;28;20270;-82
2023/10/09 09:42:13;;;;;;;14.67;5.77;;;;;;;24.78;45.53;99317.16;7064884;28;20213;-84
2023/10/09 09:45:36;;;;;;;17.70;6.00;;;;;;;24.76;43.70;99311.09;7072176;28;20222;-83
2023/10/09 09:49:00;;;;;;;16.33;5.83;;;;;;;24.04;45.99;99316.34;7053770;28;20505;-84
2023/10/09 09:52:24;;;;;;;18.50;5.87;;;;;;;25.16;44.17;99319.13;7067854;28;20332;-82
2023/10/09 09:55:51;;;;;;;12.73;4.73;;;;;;;24.90;43.75;99311.28;7070585;28;20227;-83
2023/10/09 09:59:21;;;;;;;14.63;5.47;;;;;;;25.58;43.30;99313.84;7065001;28;20209;-84
2023/10/09 10:02:43;;;;;;;18.67;5.53;;;;;;;25.98;42.01;99315.41;7053903;28;20231;-82
2023/10/09 10:06:10;;;;;;;11.90;5.90;;;;;;;26.38;41.56;99317.72;7042416;28;20394;-83
2023/10/09 10:09:38;;;;;;;19.93;6.23;;;;;;;26.74;41.26;99299.56;7044358;28;20207;-84
2023/10/09 10:13:03;;;;;;;18.33;6.87;;;;;;;26.71;40.18;99305.72;7046699;28;20279;-82
2023/10/09 10:16:34;;;;;;;15.63;5.60;;;;;;;26.93;37.55;99290.16;7038929;28;20691;-82
2023/10/09 10:20:26;;;;;;;19.27;5.23;;;;;;;27.45;36.82;99314.00;7049102;28;20218;-81
2023/10/09 10:23:47;;;;;;;16.93;5.37;;;;;;;27.29;36.60;99288.50;7042494;28;20208;-82
2023/10/09 10:27:26;;;;;;;14.17;5.37;;;;;;;27.28;36.55;99305.44;7053932;28;20625;-81
2023/10/09 10:30:50;;;;;;;14.00;6.10;;;;;;;27.38;36.04;99296.97;7059492;28;20284;-81
2023/10/09 10:34:12;;;;;;;13.77;5.50;;;;;;;27.32;35.75;99295.41;7044533;27;20239;-83
2023/10/09 10:37:44;;;;;;;17.40;5.67;;;;;;;26.54;36.48;99286.84;7039584;28;20262;-82
2023/10/09 10:41:13;;;;;;;17.63;5.17;;;;;;;27.42;35.51;99309.09;7051067;28;20214;-83
2023/10/09 10:44:41;;;;;;;17.23;5.03;;;;;;;27.50;34.60;99297.31;7048557;28;20307;-83
2023/10/09 10:48:08;;;;;;;18.33;8.83;;;;;;;27.61;35.11;99294.03;7039763;28;20686;-84
2023/10/09 10:51:38;;;;;;;15.63;5.93;;;;;;;27.41;34.61;99280.56;7040757;28;20225;-81
2023/10/09 10:55:17;;;;;;;17.40;6.20;;;;;;;27.59;35.20;99295.47;7040448;28;20228;-84
2023/10/09 10:58:38;;;;;;;18.57;5.20;;;;;;;27.26;34.77;99280.00;7051666;28;20209;-82
2023/10/09 11:02:14;;;;;;;13.77;5.03;;;;;;;27.50;34.70;99284.28;7044826;28;20257;-82
2023/10/09 11:05:39;;;;;;;16.57;5.20;;;;;;;27.65;34.44;99297.88;7041289;28;20250;-82
2023/10/09 11:09:08;;;;;;;20.57;5.90;;;;;;;27.47;34.38;99301.50;7044577;28;20544;-82
2023/10/09 11:12:38;;;;;;;21.63;5.30;;;;;;;27.46;34.11;99305.41;7040217;28;20316;-81
2023/10/09 11:19:40;;;;;;;20.47;5.20;;;;;;;27.76;33.45;99301.28;7042040;28;20730;-82
2023/10/09 11:23:15;;;;;;;14.77;5.30;;;;;;;27.95;34.45;99294.56;7036893;28;20208;-84
2023/10/09 11:26:40;;;;;;;19.97;5.23;;;;;;;27.05;35.16;99304.38;7044248;28;20311;-83
2023/10/09 11:30:21;;;;;;;18.87;5.90;;;;;;;28.15;34.38;99302.53;7052182;28;20302;-83
2023/10/09 11:33:48;;;;;;;9.87;4.70;;;;;;;28.74;33.20;99307.13;7047833;28;20234;-83
2023/10/09 11:37:16;;;;;;;14.20;4.57;;;;;;;29.15;31.68;99305.94;7060401;28;20190;-83
2023/10/09 11:41:03;;;;;;;14.63;4.70;;;;;;;28.79;32.48;99282.84;7061924;28;20208;-83
2023/10/09 11:44:39;;;;;;;15.50;4.70;;;;;;;28.78;33.21;99294.28;7076552;28;20220;-83
2023/10/09 11:48:22;;;;;;;22.10;4.97;;;;;;;28.06;31.84;99273.00;7054910;28;20215;-85
2023/10/09 11:52:31;;;;;;;15.80;4.93;;;;;;;27.65;34.41;99270.16;7058361;28;20696;-90
2023/10/09 11:55:32;;;;;;;16.57;5.00;;;;;;;28.03;36.22;99266.16;7043781;28;20228;-82
2023/10/09 11:58:58;;;;;;;18.30;5.17;;;;;;;28.12;36.88;99255.13;7034225;28;20220;-82
2023/10/09 12:02:21;;;;;;;18.27;5.17;;;;;;;28.12;36.27;99257.91;7031230;28;20678;-82
2023/10/09 12:05:45;;;;;;;11.87;4.70;;;;;;;28.10;37.86;99249.91;7041547;28;20271;-83
2023/10/09 12:09:16;;;;;;;19.27;5.90;;;;;;;27.89;38.14;99243.13;7047849;28;20213;-83
2023/10/09 12:12:39;;;;;;;20.40;5.70;;;;;;;28.11;38.72;99247.97;7043234;28;20813;-84
2023/10/09 12:16:01;;;;;;;15.93;4.73;;;;;;;27.47;39.21;99210.09;7043748;28;20255;-84
2023/10/09 12:19:23;;;;;;;16.80;5.03;;;;;;;27.54;39.22;99245.72;7046746;28;20275;-85
2023/10/09 12:22:44;;;;;;;15.83;5.17;;;;;;;27.10;39.01;99239.78;7048190;28;20204;-85
2023/10/09 12:26:14;;;;;;;18.07;4.57;;;;;;;26.67;38.47;99250.13;7042365;28;20781;-84
2023/10/09 12:29:37;;;;;;;16.63;4.33;;;;;;;27.39;38.05;99244.03;7041756;27;20756;-83
2023/10/09 12:32:59;;;;;;;14.07;5.17;;;;;;;27.84;36.25;99239.66;7040904;27;20705;-86
2023/10/09 12:36:20;;;;;;;13.13;4.87;;;;;;;28.31;33.54;99214.28;7037675;28;20252;-84
2023/10/09 12:39:42;;;;;;;16.87;4.87;;;;;;;28.65;34.44;99200.75;7045893;28;20204;-85
2023/10/09 12:43:05;;;;;;;14.77;4.60;;;;;;;28.79;32.93;99163.47;7039351;28;20205;-83
2023/10/09 12:46:32;;;;;;;16.30;4.90;;;;;;;28.93;32.23;99164.25;7036603;28;20658;-85
2023/10/09 12:49:54;;;;;;;14.33;5.00;;;;;;;28.77;33.22;99193.50;7050733;28;20197;-85
2023/10/09 12:53:17;;;;;;;17.73;4.70;;;;;;;28.68;32.32;99195.41;7047284;28;20196;-85
2023/10/09 12:56:39;;;;;;;14.33;4.47;;;;;;;28.59;31.75;99188.94;7043506;28;20642;-86
2023/10/09 13:00:00;;;;;;;16.40;6.17;;;;;;;28.80;34.04;99220.66;7047781;28;20201;-86
2023/10/09 13:03:28;;;;;;;17.73;5.40;;;;;;;28.14;36.07;99201.00;7053001;27;20287;-85
2023/10/09 13:06:53;;;;;;;14.27;4.60;;;;;;;28.00;34.62;99188.28;7033988;27;20251;-85
2023/10/09 13:10:15;;;;;;;13.10;5.23;;;;;;;28.31;35.50;99192.88;7039305;28;20209;-83
2023/10/09 13:13:40;;;;;;;15.03;4.97;;;;;;;28.69;34.21;99202.59;7039940;28;20232;-84
2023/10/09 13:17:08;;;;;;;16.97;5.53;;;;;;;28.95;32.96;99186.16;7041800;28;20220;-85
2023/10/09 13:20:31;;;;;;;19.00;5.33;;;;;;;29.22;31.43;99188.81;7038359;28;20216;-85
2023/10/09 13:23:54;;;;;;;15.17;5.70;;;;;;;29.87;31.38;99175.94;7037754;28;20208;-86
2023/10/09 13:27:21;;;;;;;16.60;4.57;;;;;;;29.83;31.28;99181.31;7038635;28;20202;-85
2023/10/09 13:30:49;;;;;;;16.17;5.37;;;;;;;29.91;31.73;99172.19;7045489;28;20294;-86
2023/10/09 13:34:14;;;;;;;14.57;4.83;;;;;;;29.64;30.73;99157.69;7033815;28;20237;-85
2023/10/09 13:37:37;;;;;;;19.93;5.03;;;;;;;29.52;29.95;99102.69;7045341;28;20224;-86
2023/10/09 13:41:01;;;;;;;20.47;4.63;;;;;;;30.39;29.95;99178.59;7036515;28;20217;-84
2023/10/09 13:44:22;;;;;;;15.47;5.27;;;;;;;30.02;30.42;99175.53;7028609;28;20226;-84
2023/10/09 13:47:44;;;;;;;14.20;5.37;;;;;;;30.44;29.42;99169.25;7032697;28;20206;-83
2023/10/09 13:51:07;;;;;;;16.27;5.73;;;;;;;30.34;27.76;99175.13;7036702;28;20281;-84
2023/10/09 13:54:39;;;;;;;13.37;5.07;;;;;;;30.14;27.47;99170.97;7035533;28;20221;-85
2023/10/09 13:58:01;;;;;;;13.03;6.43;;;;;;;29.99;25.12;99165.84;7028785;28;20285;-85
2023/10/09 14:01:28;;;;;;;14.10;6.20;;;;;;;29.80;23.52;99159.75;7048940;28;20345;-85
2023/10/09 14:04:51;;;;;;;14.23;6.73;;;;;;;30.19;23.96;99167.25;7036878;28;20230;-87
2023/10/09 14:08:15;;;;;;;9.03;5.97;;;;;;;30.36;22.59;99122.75;7035953;28;20203;-87
2023/10/09 14:11:39;;;;;;;11.90;5.90;;;;;;;30.29;22.41;99150.22;7042319;28;20668;-85
2023/10/09 14:15:03;;;;;;;12.43;6.73;;;;;;;30.26;23.41;99140.56;7041510;28;20224;-84
2023/10/09 14:18:25;;;;;;;12.17;6.63;;;;;;;30.10;23.48;99156.09;7041228;28;20210;-85
2023/10/09 14:21:49;;;;;;;12.57;7.20;;;;;;;30.34;22.23;99137.00;7033780;28;20293;-85
2023/10/09 14:25:15;;;;;;;13.60;6.90;;;;;;;30.30;22.27;99140.75;7039519;28;20687;-84
2023/10/09 14:28:37;;;;;;;14.63;6.07;;;;;;;30.10;22.00;99136.63;7046657;28;20327;-84
2023/10/09 14:32:02;;;;;;;13.10;7.00;;;;;;;29.81;21.79;99085.47;7042695;27;20220;-84
2023/10/09 14:35:26;;;;;;;13.47;6.73;;;;;;;30.03;22.70;99115.97;7037559;28;20229;-86
2023/10/09 14:38:52;;;;;;;11.40;6.57;;;;;;;30.03;23.23;99116.78;7031288;28;20204;-83
2023/10/09 14:42:15;;;;;;;12.07;6.50;;;;;;;30.04;24.82;99124.00;7026921;28;20243;-81
2023/10/09 14:45:38;;;;;;;13.90;6.47;;;;;;;29.81;25.83;99122.44;7045417;28;20235;-82
2023/10/09 14:49:00;;;;;;;14.37;6.30;;;;;;;29.39;29.64;99103.63;7055320;28;20656;-82
2023/10/09 14:52:24;;;;;;;12.40;5.90;;;;;;;29.40;30.81;99113.59;7054248;28;20676;-82
2023/10/09 14:55:47;;;;;;;12.70;7.07;;;;;;;29.05;30.34;99120.09;7035419;28;20630;-82
2023/10/09 14:59:10;;;;;;;12.93;6.87;;;;;;;29.03;31.23;99118.78;7055691;28;20235;-84
2023/10/09 15:02:33;;;;;;;14.20;6.40;;;;;;;28.98;31.53;99128.06;7034178;28;20197;-83
2023/10/09 15:05:55;;;;;;;11.37;6.70;;;;;;;28.24;33.34;99125.13;7064646;28;20239;-83
2023/10/09 15:09:22;;;;;;;9.93;6.13;;;;;;;28.51;33.33;99127.81;7081902;27;20199;-86
2023/10/09 15:12:46;;;;;;;12.33;7.20;;;;;;;28.30;33.77;99143.28;7082339;27;20693;-86
2023/10/09 15:16:10;;;;;;;16.37;6.33;;;;;;;27.72;34.78;99128.44;7080806;27;20226;-86
2023/10/09 15:19:33;;;;;;;14.97;6.90;;;;;;;27.72;34.96;99126.47;7034571;28;20209;-85
2023/10/09 15:22:55;;;;;;;17.23;6.63;;;;;;;27.64;35.72;99131.91;7027433;28;20242;-84
2023/10/09 15:26:17;;;;;;;14.20;6.37;;;;;;;27.61;36.58;99115.91;7037408;28;20228;-84
2023/10/09 15:29:43;;;;;;;13.63;6.37;;;;;;;27.37;38.13;99093.94;7057212;28;20206;-85
2023/10/09 15:33:05;;;;;;;14.37;6.90;;;;;;;27.30;39.00;99124.00;7050336;28;20297;-84
2023/10/09 15:36:32;;;;;;;14.47;6.43;;;;;;;26.84;40.50;99130.63;7034861;28;20357;-84
2023/10/09 15:39:53;;;;;;;10.73;6.40;;;;;;;26.66;40.63;99112.13;7047128;28;20208;-82
2023/10/09 15:43:16;;;;;;;13.20;6.07;;;;;;;26.71;40.55;99123.91;7048074;28;20254;-82
2023/10/09 15:46:38;;;;;;;20.70;6.60;;;;;;;26.90;40.30;99137.72;7051478;28;20270;-85
2023/10/09 15:49:59;;;;;;;16.47;7.00;;;;;;;26.70;41.08;99125.03;7053161;28;20222;-81
2023/10/09 15:53:23;;;;;;;27.87;12.80;;;;;;;26.52;41.87;99133.31;7054804;28;20237;-84
2023/10/09 15:56:45;;;;;;;53.43;35.60;;;;;;;26.19;43.11;99143.50;7042991;28;22314;-82
2023/10/09 16:00:13;;;;;;;179.30;110.03;;;;;;;25.96;42.64;99080.00;7060842;27;20364;-83
2023/10/09 16:03:35;;;;;;;364.60;272.17;;;;;;;26.24;42.99;99131.56;7045074;27;20279;-83
2023/10/09 16:06:56;;;;;;;25.17;20.90;;;;;;;25.51;44.73;99147.66;7037277;28;20599;-83
2023/10/09 16:10:21;;;;;;;14.97;7.33;;;;;;;25.69;44.33;99137.78;7045942;28;20251;-84
2023/10/09 16:13:42;;;;;;;15.80;7.53;;;;;;;25.52;44.43;99148.47;7046482;28;20227;-82
2023/10/09 16:17:06;;;;;;;14.97;7.10;;;;;;;25.36;44.38;99124.91;7038380;28;20678;-81
2023/10/09 16:20:27;;;;;;;13.13;6.47;;;;;;;25.50;44.13;99154.31;7043021;28;20215;-83
2023/10/09 16:23:49;;;;;;;14.43;7.13;;;;;;;25.34;44.73;99143.69;7051722;28;20292;-82
2023/10/09 16:27:13;;;;;;;11.13;6.47;;;;;;;24.59;46.16;99145.19;7041152;28;20216;-81
2023/10/09 16:30:35;;;;;;;14.57;6.57;;;;;;;24.92;44.15;99149.88;7048682;28;20203;-82
2023/10/09 16:33:57;;;;;;;12.33;5.90;;;;;;;24.76;43.29;99153.88;7051196;28;20290;-81
2023/10/09 16:37:22;;;;;;;12.10;6.73;;;;;;;24.83;43.25;99170.09;7045057;28;20208;-82
2023/10/09 16:40:46;;;;;;;13.93;6.30;;;;;;;24.69;43.34;99158.91;7056885;27;20222;-82
2023/10/09 16:44:09;;;;;;;16.87;8.13;;;;;;;24.70;42.35;99170.75;7046767;28;20847;-82
2023/10/09 16:47:31;;;;;;;15.40;7.40;;;;;;;24.43;43.02;99173.94;7051854;28;20215;-86
2023/10/09 16:50:53;;;;;;;13.43;6.87;;;;;;;24.12;43.78;99163.41;7047074;28;20219;-80